createdAt,value
2019-02-06T00:00:30.571Z,1.60
2019-02-06T00:02:56.609Z,1.60
2019-02-06T00:05:22.988Z,1.60
2019-02-06T00:07:49.173Z,1.70
2019-02-06T00:10:15.428Z,1.60
2019-02-06T00:12:41.526Z,1.70
2019-02-06T00:15:07.992Z,1.70
2019-02-06T00:17:34.230Z,1.90
2019-02-06T00:20:00.419Z,1.90
2019-02-06T00:22:26.515Z,2.00
2019-02-06T00:24:52.552Z,2.00
2019-02-06T00:27:18.883Z,2.20
2019-02-06T00:29:44.957Z,2.20
2019-02-06T00:32:11.083Z,2.30
2019-02-06T00:34:37.149Z,2.30
2019-02-06T00:37:04.304Z,2.40
2019-02-06T00:39:30.426Z,2.40
2019-02-06T00:41:56.488Z,2.40
2019-02-06T00:44:22.534Z,2.50
2019-02-06T00:46:48.975Z,2.50
2019-02-06T00:49:15.017Z,2.60
2019-02-06T00:51:41.527Z,2.60
2019-02-06T00:54:07.599Z,2.70
2019-02-06T00:56:33.636Z,2.70
2019-02-06T00:58:59.708Z,2.70
2019-02-06T01:01:25.860Z,2.70
2019-02-06T01:03:51.932Z,2.70
2019-02-06T01:06:18.068Z,2.80
2019-02-06T01:08:44.405Z,2.90
2019-02-06T01:11:10.587Z,3.00
2019-02-06T01:13:36.729Z,3.00
2019-02-06T01:16:02.942Z,3.00
2019-02-06T01:18:29.019Z,3.00
2019-02-06T01:20:55.150Z,3.00
2019-02-06T01:23:21.277Z,3.10
2019-02-06T01:25:47.438Z,3.20
2019-02-06T01:28:13.494Z,3.20
2019-02-06T01:30:44.827Z,3.30
2019-02-06T01:33:10.920Z,3.30
2019-02-06T01:35:37.014Z,3.30
2019-02-06T01:38:03.227Z,3.30
2019-02-06T01:40:29.272Z,3.40
2019-02-06T01:42:55.374Z,3.40
2019-02-06T01:45:21.694Z,3.40
2019-02-06T01:47:47.946Z,3.30
2019-02-06T01:50:16.331Z,3.40
2019-02-06T01:52:42.615Z,3.50
2019-02-06T01:55:11.447Z,3.60
2019-02-06T01:57:37.508Z,3.60
2019-02-06T02:00:15.616Z,3.50
2019-02-06T02:02:42.027Z,3.50
2019-02-06T02:05:08.298Z,3.50
2019-02-06T02:07:34.331Z,3.50
2019-02-06T02:10:00.600Z,3.50
2019-02-06T02:12:26.739Z,3.50
2019-02-06T02:14:52.783Z,3.60
2019-02-06T02:17:18.943Z,3.60
2019-02-06T02:19:45.217Z,3.70
2019-02-06T02:22:11.358Z,3.60
2019-02-06T02:24:37.383Z,3.60
2019-02-06T02:27:03.853Z,3.60
2019-02-06T02:29:29.896Z,3.60
2019-02-06T02:31:56.038Z,3.60
2019-02-06T02:34:22.180Z,3.60
2019-02-06T02:36:48.218Z,3.50
2019-02-06T02:39:14.282Z,3.40
2019-02-06T02:41:40.429Z,3.40
2019-02-06T02:44:06.674Z,3.40
2019-02-06T02:46:33.098Z,3.40
2019-02-06T02:48:59.564Z,3.40
2019-02-06T02:51:25.607Z,3.40
2019-02-06T02:53:51.768Z,3.40
2019-02-06T02:56:17.926Z,3.40
2019-02-06T02:58:43.999Z,3.40
2019-02-06T03:01:14.459Z,3.40
2019-02-06T03:03:42.408Z,3.50
2019-02-06T03:06:08.839Z,3.50
2019-02-06T03:08:34.854Z,3.40
2019-02-06T03:11:01.092Z,3.40
2019-02-06T03:13:27.152Z,3.40
2019-02-06T03:15:53.272Z,3.40
2019-02-06T03:18:19.584Z,3.40
2019-02-06T03:20:45.628Z,3.40
2019-02-06T03:23:11.694Z,3.40
2019-02-06T03:25:37.815Z,3.50
2019-02-06T03:28:03.951Z,3.50
2019-02-06T03:30:30.118Z,3.40
2019-02-06T03:32:56.469Z,3.40
2019-02-06T03:35:22.529Z,3.40
2019-02-06T03:37:48.588Z,3.40
2019-02-06T03:40:16.535Z,3.40
2019-02-06T03:42:42.691Z,3.40
2019-02-06T03:45:11.425Z,3.40
2019-02-06T03:47:37.599Z,3.40
2019-02-06T03:50:10.228Z,3.40
2019-02-06T03:52:36.253Z,3.40
2019-02-06T03:55:04.091Z,3.30
2019-02-06T03:57:30.177Z,3.30
2019-02-06T03:59:56.243Z,3.30
2019-02-06T04:02:22.276Z,3.30
2019-02-06T04:04:48.815Z,3.30
2019-02-06T04:07:14.902Z,3.20
2019-02-06T04:09:40.972Z,3.20
2019-02-06T04:12:07.295Z,3.30
2019-02-06T04:14:33.355Z,3.20
2019-02-06T04:16:59.449Z,3.20
2019-02-06T04:19:25.502Z,3.20
2019-02-06T04:21:51.834Z,3.20
2019-02-06T04:24:17.932Z,3.20
2019-02-06T04:26:44.144Z,3.20
2019-02-06T04:29:10.204Z,3.20
2019-02-06T04:31:36.344Z,3.20
2019-02-06T04:34:03.204Z,3.30
2019-02-06T04:36:29.329Z,3.20
2019-02-06T04:38:55.371Z,3.20
2019-02-06T04:41:23.596Z,3.20
2019-02-06T04:43:49.760Z,3.20
2019-02-06T04:46:16.001Z,3.20
2019-02-06T04:48:42.177Z,3.20
2019-02-06T04:51:08.205Z,3.10
2019-02-06T04:53:34.231Z,3.10
2019-02-06T04:56:00.403Z,3.00
2019-02-06T04:58:26.444Z,3.00
2019-02-06T05:00:52.508Z,3.00
2019-02-06T05:03:18.605Z,3.00
2019-02-06T05:05:44.675Z,2.90
2019-02-06T05:08:10.804Z,2.90
2019-02-06T05:10:37.105Z,2.90
2019-02-06T05:13:03.319Z,2.90
2019-02-06T05:15:29.419Z,2.80
2019-02-06T05:17:56.020Z,2.80
2019-02-06T05:20:38.324Z,2.70
2019-02-06T05:23:05.138Z,2.70
2019-02-06T05:25:31.388Z,2.60
2019-02-06T05:27:57.441Z,2.60
2019-02-06T05:30:23.455Z,2.60
2019-02-06T05:32:49.763Z,2.60
2019-02-06T05:35:15.907Z,2.60
2019-02-06T05:37:42.061Z,2.60
2019-02-06T05:40:09.837Z,2.60
2019-02-06T05:42:35.881Z,2.70
2019-02-06T05:45:04.639Z,2.70
2019-02-06T05:47:31.438Z,2.70
2019-02-06T05:49:57.474Z,2.70
2019-02-06T05:52:23.604Z,2.70
2019-02-06T05:54:49.927Z,2.70
2019-02-06T05:57:16.028Z,2.70
2019-02-06T05:59:42.133Z,2.70
2019-02-06T06:02:08.215Z,2.70
2019-02-06T06:04:43.374Z,2.80
2019-02-06T06:07:09.859Z,2.80
2019-02-06T06:09:36.067Z,2.80
2019-02-06T06:12:02.257Z,2.80
2019-02-06T06:14:28.345Z,2.80
2019-02-06T06:16:54.492Z,2.80
2019-02-06T06:19:20.921Z,2.80
2019-02-06T06:21:47.054Z,2.80
2019-02-06T06:24:13.492Z,2.80
2019-02-06T06:26:39.596Z,2.80
2019-02-06T06:29:05.632Z,2.80
2019-02-06T06:31:31.694Z,2.80
2019-02-06T06:33:59.774Z,2.80
2019-02-06T06:36:25.797Z,2.90
2019-02-06T06:38:51.812Z,2.90
2019-02-06T06:41:18.111Z,2.90
2019-02-06T06:43:44.145Z,2.90
2019-02-06T06:46:10.623Z,2.90
2019-02-06T06:48:37.049Z,2.90
2019-02-06T06:51:03.128Z,2.90
2019-02-06T06:53:29.171Z,2.90
2019-02-06T06:55:55.295Z,2.90
2019-02-06T06:58:21.327Z,3.00
2019-02-06T07:00:47.350Z,3.00
2019-02-06T07:03:13.384Z,3.00
2019-02-06T07:05:39.422Z,3.00
2019-02-06T07:08:11.152Z,3.00
2019-02-06T07:10:33.502Z,3.00
2019-02-06T07:12:59.523Z,2.90
2019-02-06T07:15:30.893Z,3.00
2019-02-06T07:17:56.925Z,3.00
2019-02-06T07:20:23.019Z,3.00
2019-02-06T07:22:49.045Z,3.10
2019-02-06T07:25:17.369Z,3.10
2019-02-06T07:27:43.527Z,3.10
2019-02-06T07:30:24.667Z,3.10
2019-02-06T07:32:50.818Z,3.10
2019-02-06T07:35:16.836Z,3.20
2019-02-06T07:37:42.876Z,3.20
2019-02-06T07:40:11.670Z,3.30
2019-02-06T07:42:37.730Z,3.30
2019-02-06T07:45:09.478Z,3.40
2019-02-06T07:47:35.647Z,3.40
2019-02-06T07:50:04.480Z,3.40
2019-02-06T07:52:30.501Z,3.40
2019-02-06T07:54:56.543Z,3.50
2019-02-06T07:57:22.580Z,3.60
2019-02-06T07:59:48.792Z,3.70
2019-02-06T08:02:14.848Z,3.80
2019-02-06T08:04:41.676Z,3.90
2019-02-06T08:07:09.692Z,4.00
2019-02-06T08:09:35.715Z,4.00
2019-02-06T08:12:01.783Z,3.80
2019-02-06T08:14:27.802Z,3.80
2019-02-06T08:16:53.819Z,3.80
2019-02-06T08:19:19.986Z,3.90
2019-02-06T08:21:46.041Z,3.90
2019-02-06T08:24:12.066Z,4.00
2019-02-06T08:26:38.287Z,4.10
2019-02-06T08:29:04.418Z,4.20
2019-02-06T08:31:30.467Z,4.20
2019-02-06T08:33:56.503Z,4.10
2019-02-06T08:36:22.559Z,4.10
2019-02-06T08:38:49.552Z,4.10
2019-02-06T08:41:16.574Z,4.20
2019-02-06T08:43:42.587Z,4.20
2019-02-06T08:46:08.616Z,4.30
2019-02-06T08:48:34.667Z,4.20
2019-02-06T08:51:00.792Z,4.20
2019-02-06T08:53:26.827Z,4.30
2019-02-06T08:55:52.883Z,4.30
2019-02-06T08:58:19.063Z,4.40
2019-02-06T09:00:45.095Z,4.40
2019-02-06T09:03:11.367Z,4.40
2019-02-06T09:05:37.471Z,4.40
2019-02-06T09:08:03.783Z,4.40
2019-02-06T09:10:30.556Z,4.40
2019-02-06T09:12:58.992Z,4.60
2019-02-06T09:15:27.441Z,4.60
2019-02-06T09:17:53.458Z,4.70
2019-02-06T09:20:21.827Z,4.70
2019-02-06T09:22:47.865Z,4.70
2019-02-06T09:25:16.403Z,4.80
2019-02-06T09:27:42.749Z,4.80
2019-02-06T09:30:12.642Z,4.90
2019-02-06T09:32:38.651Z,4.90
2019-02-06T09:35:05.483Z,4.90
2019-02-06T09:37:31.542Z,4.90
2019-02-06T09:39:57.974Z,5.10
2019-02-06T09:42:24.011Z,4.90
2019-02-06T09:44:50.083Z,5.00
2019-02-06T09:47:16.122Z,5.10
2019-02-06T09:49:42.232Z,5.10
2019-02-06T09:52:08.373Z,5.20
2019-02-06T09:54:34.661Z,5.30
2019-02-06T09:57:00.687Z,5.30
2019-02-06T09:59:26.859Z,5.30
2019-02-06T10:01:53.190Z,5.30
2019-02-06T10:04:19.378Z,5.40
2019-02-06T10:06:45.408Z,5.60
2019-02-06T10:09:22.359Z,5.60
2019-02-06T10:11:39.476Z,5.70
2019-02-06T10:14:05.500Z,5.80
2019-02-06T10:16:31.527Z,5.80
2019-02-06T10:18:57.559Z,5.80
2019-02-06T10:21:24.191Z,5.90
2019-02-06T10:23:50.475Z,5.90
2019-02-06T10:26:16.520Z,5.90
2019-02-06T10:28:42.543Z,6.00
2019-02-06T10:31:08.589Z,6.10
2019-02-06T10:33:35.225Z,6.10
2019-02-06T10:36:01.235Z,6.20
2019-02-06T10:38:27.289Z,6.20
2019-02-06T10:40:53.449Z,6.20
2019-02-06T10:43:31.315Z,6.20
2019-02-06T10:45:47.818Z,6.30
2019-02-06T10:48:14.759Z,6.30
2019-02-06T10:50:44.115Z,6.20
2019-02-06T10:53:10.359Z,6.20
2019-02-06T10:55:36.388Z,6.20
2019-02-06T10:58:02.846Z,6.20
2019-02-06T11:00:37.869Z,6.30
2019-02-06T11:03:04.391Z,6.20
2019-02-06T11:05:30.695Z,6.20
2019-02-06T11:07:56.832Z,6.10
2019-02-06T11:10:24.448Z,6.10
2019-02-06T11:12:50.708Z,6.10
2019-02-06T11:15:16.927Z,6.00
2019-02-06T11:17:42.967Z,5.90
2019-02-06T11:20:15.711Z,5.90
2019-02-06T11:22:41.826Z,5.90
2019-02-06T11:25:10.288Z,5.90
2019-02-06T11:27:36.405Z,6.00
2019-02-06T11:30:09.210Z,6.10
2019-02-06T11:32:35.363Z,6.00
2019-02-06T11:35:02.550Z,5.90
2019-02-06T11:37:28.811Z,5.90
2019-02-06T11:39:57.944Z,5.80
2019-02-06T11:42:22.908Z,5.80
2019-02-06T11:44:48.951Z,5.80
2019-02-06T11:47:14.983Z,5.60
2019-02-06T11:49:41.944Z,5.60
2019-02-06T11:52:08.099Z,5.60
2019-02-06T11:54:34.582Z,5.60
2019-02-06T11:57:00.599Z,5.70
2019-02-06T11:59:26.643Z,5.60
2019-02-06T12:01:52.682Z,5.60
2019-02-06T12:04:18.715Z,5.60
2019-02-06T12:06:44.743Z,5.60
2019-02-06T12:09:11.117Z,5.60
2019-02-06T12:11:37.144Z,5.40
2019-02-06T12:14:03.473Z,5.40
2019-02-06T12:16:30.049Z,5.40
2019-02-06T12:18:56.231Z,5.30
2019-02-06T12:21:22.387Z,5.20
2019-02-06T12:23:48.396Z,5.20
2019-02-06T12:26:14.440Z,5.30
2019-02-06T12:28:40.467Z,5.20
2019-02-06T12:31:06.908Z,5.20
2019-02-06T12:36:08.049Z,5.20
2019-02-06T12:38:34.246Z,5.20
2019-02-06T12:41:03.032Z,5.20
2019-02-06T12:43:46.511Z,5.30
2019-02-06T12:46:17.795Z,5.30
2019-02-06T12:48:44.424Z,5.20
2019-02-06T12:51:10.721Z,5.10
2019-02-06T12:56:42.728Z,5.10
2019-02-06T12:59:09.094Z,5.00
2019-02-06T13:06:46.258Z,5.10
2019-02-06T13:09:12.475Z,5.10
2019-02-06T13:11:42.595Z,5.10
2019-02-06T13:14:09.991Z,5.10
2019-02-06T13:16:36.169Z,5.10
2019-02-06T13:19:02.614Z,5.10
2019-02-06T13:21:31.175Z,5.10
2019-02-06T13:23:57.274Z,5.10
2019-02-06T13:26:23.532Z,5.10
2019-02-06T13:28:49.680Z,5.10
2019-02-06T13:31:15.851Z,5.10
2019-02-06T13:33:41.899Z,5.00
2019-02-06T13:36:09.352Z,5.00
2019-02-06T13:38:35.738Z,5.00
2019-02-06T13:41:01.927Z,5.00
2019-02-06T13:43:28.180Z,5.10
2019-02-06T13:45:54.584Z,5.10
2019-02-06T13:48:21.901Z,5.10
2019-02-06T13:50:48.371Z,5.10
2019-02-06T13:53:14.565Z,5.10
2019-02-06T13:55:40.709Z,5.20
2019-02-06T13:58:27.015Z,5.20
2019-02-06T14:00:44.789Z,5.20
2019-02-06T14:03:11.048Z,5.20
2019-02-06T14:05:40.234Z,5.10
2019-02-06T14:08:09.125Z,5.20
2019-02-06T14:10:35.707Z,5.30
2019-02-06T14:13:02.315Z,5.30
2019-02-06T14:15:34.826Z,5.40
2019-02-06T14:18:01.826Z,5.40
2019-02-06T14:20:28.552Z,5.40
2019-02-06T14:23:04.382Z,5.30
2019-02-06T14:25:34.086Z,5.30
2019-02-06T14:28:13.683Z,5.30
2019-02-06T14:30:43.617Z,5.30
2019-02-06T14:33:28.950Z,5.30
2019-02-06T14:36:18.206Z,5.40
2019-02-06T14:39:19.953Z,5.40
2019-02-06T14:41:54.679Z,5.40
2019-02-06T14:44:45.910Z,5.30
2019-02-06T14:47:24.716Z,5.40
2019-02-06T14:50:00.334Z,5.40
2019-02-06T14:52:45.244Z,5.40
2019-02-06T14:55:32.792Z,5.40
2019-02-06T14:58:02.714Z,5.40
2019-02-06T15:00:47.582Z,5.40
2019-02-06T15:03:35.723Z,5.40
2019-02-06T15:06:05.655Z,5.40
2019-02-06T15:08:35.507Z,5.50
2019-02-06T15:11:19.174Z,5.50
2019-02-06T15:13:45.817Z,5.50
2019-02-06T15:16:24.380Z,5.50
2019-02-06T15:18:54.875Z,5.60
2019-02-06T15:21:42.879Z,5.50
2019-02-06T15:24:19.063Z,5.50
2019-02-06T15:26:48.942Z,5.40
2019-02-06T15:29:35.654Z,5.40
2019-02-06T15:32:05.555Z,5.30
2019-02-06T15:34:47.570Z,5.40
2019-02-06T15:37:27.007Z,5.30
2019-02-06T15:40:08.997Z,5.30
2019-02-06T15:42:58.545Z,5.20
2019-02-06T15:45:43.617Z,5.20
2019-02-06T15:48:29.292Z,5.20
2019-02-06T15:51:11.098Z,5.20
2019-02-06T15:53:44.219Z,5.20
2019-02-06T15:56:19.504Z,5.10
2019-02-06T15:59:04.331Z,5.20
2019-02-06T16:01:43.327Z,5.10
2019-02-06T16:04:38.188Z,5.20
2019-02-06T16:07:17.388Z,5.20
2019-02-06T16:10:05.074Z,5.30
2019-02-06T16:12:51.735Z,5.20
2019-02-06T16:15:24.670Z,5.30
2019-02-06T16:17:56.352Z,5.30
2019-02-06T16:20:29.191Z,5.40
2019-02-06T16:23:05.274Z,5.40
2019-02-06T16:25:52.821Z,5.40
2019-02-06T16:28:26.127Z,5.30
2019-02-06T16:31:05.378Z,5.40
2019-02-06T16:33:41.439Z,5.40
2019-02-06T16:36:30.839Z,5.30
2019-02-06T16:39:23.499Z,5.30
2019-02-06T16:42:05.839Z,5.30
2019-02-06T16:44:35.813Z,5.30
2019-02-06T16:47:14.871Z,5.30
2019-02-06T16:50:03.073Z,5.30
2019-02-06T16:52:50.948Z,5.40
2019-02-06T16:55:51.253Z,5.30
2019-02-06T16:58:23.925Z,5.20
2019-02-06T17:01:03.077Z,5.20
2019-02-06T17:03:36.072Z,5.30
2019-02-06T17:06:22.146Z,5.30
2019-02-06T17:09:12.670Z,5.30
2019-02-06T17:12:04.057Z,5.40
2019-02-06T17:14:38.192Z,5.40
2019-02-06T17:17:29.510Z,5.30
2019-02-06T17:20:08.500Z,5.30
2019-02-06T17:22:45.857Z,5.30
2019-02-06T17:25:24.599Z,5.20
2019-02-06T17:28:12.703Z,5.20
2019-02-06T17:30:45.587Z,5.20
2019-02-06T17:33:45.331Z,5.20
2019-02-06T17:36:21.429Z,5.20
2019-02-06T17:38:54.068Z,5.20
2019-02-06T17:41:26.990Z,5.30
2019-02-06T17:44:26.393Z,5.30
2019-02-06T17:46:59.523Z,5.20
2019-02-06T17:49:46.118Z,5.20
2019-02-06T17:52:15.962Z,5.20
2019-02-06T17:54:51.958Z,5.20
2019-02-06T17:57:19.488Z,5.20
2019-02-06T17:59:45.738Z,5.20
2019-02-06T18:02:12.031Z,5.20
2019-02-06T18:07:13.634Z,5.30
2019-02-06T18:09:40.579Z,5.20
2019-02-06T18:12:06.909Z,5.30
2019-02-06T18:14:32.953Z,5.30
2019-02-06T18:17:01.286Z,5.20
2019-02-06T18:19:27.484Z,5.30
2019-02-06T18:21:53.532Z,5.30
2019-02-06T18:24:19.624Z,5.20
2019-02-06T18:26:46.496Z,5.20
2019-02-06T18:29:13.064Z,5.20
2019-02-06T18:31:39.157Z,5.20
2019-02-06T18:34:06.579Z,5.30
2019-02-06T18:36:33.124Z,5.30
2019-02-06T18:38:59.167Z,5.20
2019-02-06T18:41:25.439Z,5.20
2019-02-06T18:43:51.930Z,5.20
2019-02-06T18:46:18.087Z,5.30
2019-02-06T18:48:44.440Z,5.20
2019-02-06T18:51:10.680Z,5.20
2019-02-06T18:53:37.051Z,5.30
2019-02-06T18:56:04.049Z,5.30
2019-02-06T18:58:30.216Z,5.20
2019-02-06T19:01:16.270Z,5.30
2019-02-06T19:03:43.543Z,5.20
2019-02-06T19:06:09.991Z,5.20
2019-02-06T19:08:36.327Z,5.30
2019-02-06T19:11:03.282Z,5.30
2019-02-06T19:13:29.558Z,5.20
2019-02-06T19:15:56.696Z,5.20
2019-02-06T19:18:23.230Z,5.20
2019-02-06T19:20:49.525Z,5.20
2019-02-06T19:23:15.668Z,5.20
2019-02-06T19:25:41.788Z,5.20
2019-02-06T19:28:07.893Z,5.20
2019-02-06T19:30:39.973Z,5.20
2019-02-06T19:33:06.599Z,5.30
2019-02-06T19:35:32.632Z,5.30
2019-02-06T19:37:58.774Z,5.20
2019-02-06T19:40:24.895Z,5.20
2019-02-06T19:42:59.103Z,5.20
2019-02-06T19:45:19.202Z,5.30
2019-02-06T19:47:45.880Z,5.30
2019-02-06T19:50:23.609Z,5.30
2019-02-06T19:52:49.851Z,5.20
2019-02-06T19:55:17.044Z,5.20
2019-02-06T19:57:43.209Z,5.20
2019-02-06T20:00:18.894Z,5.30
2019-02-06T20:02:45.208Z,5.20
2019-02-06T20:05:14.067Z,5.20
2019-02-06T20:07:40.830Z,5.20
2019-02-06T20:10:32.081Z,5.20
2019-02-06T20:12:58.214Z,5.20
2019-02-06T20:15:25.110Z,5.20
2019-02-06T20:17:52.508Z,5.20
2019-02-06T20:20:21.105Z,5.30
2019-02-06T20:22:47.528Z,5.30
2019-02-06T20:25:14.461Z,5.30
2019-02-06T20:27:40.556Z,5.30
2019-02-06T20:30:18.970Z,5.30
2019-02-06T20:32:45.296Z,5.40
2019-02-06T20:35:13.131Z,5.50
2019-02-06T20:37:39.609Z,5.40
2019-02-06T20:40:09.535Z,5.50
2019-02-06T20:42:35.691Z,5.40
2019-02-06T20:45:02.052Z,5.30
2019-02-06T20:47:28.171Z,5.20
2019-02-06T20:49:54.192Z,5.30
2019-02-06T20:52:20.275Z,5.30
2019-02-06T20:54:47.280Z,5.30
2019-02-06T20:57:15.694Z,5.30
2019-02-06T20:59:41.560Z,5.40
2019-02-06T21:02:07.770Z,5.40
2019-02-06T21:04:34.112Z,5.40
2019-02-06T21:07:00.247Z,5.50
2019-02-06T21:09:26.440Z,5.50
2019-02-06T21:11:52.504Z,5.50
2019-02-06T21:14:18.560Z,5.50
2019-02-06T21:16:44.619Z,5.60
2019-02-06T21:19:10.712Z,5.60
2019-02-06T21:21:36.835Z,5.60
2019-02-06T21:24:03.068Z,5.60
2019-02-06T21:26:29.443Z,5.40
2019-02-06T21:28:56.075Z,5.50
2019-02-06T21:31:22.187Z,5.40
2019-02-06T21:33:49.087Z,5.40
2019-02-06T21:36:15.263Z,5.50
2019-02-06T21:38:41.288Z,5.50
2019-02-06T21:41:07.508Z,5.50
2019-02-06T21:43:43.603Z,5.50
2019-02-06T21:46:01.580Z,5.40
2019-02-06T21:48:27.933Z,5.40
2019-02-06T21:50:54.199Z,5.40
2019-02-06T21:53:26.745Z,5.40
2019-02-06T21:55:52.988Z,5.40
2019-02-06T21:58:19.066Z,5.40
2019-02-06T22:00:45.172Z,5.40
2019-02-06T22:03:11.629Z,5.40
2019-02-06T22:05:39.283Z,5.40
2019-02-06T22:08:05.530Z,5.40
2019-02-06T22:10:32.019Z,5.40
2019-02-06T22:12:58.827Z,5.40
2019-02-06T22:15:32.228Z,5.40
2019-02-06T22:18:00.644Z,5.50
2019-02-06T22:20:27.155Z,5.40
2019-02-06T22:22:53.392Z,5.40
2019-02-06T22:25:19.831Z,5.40
2019-02-06T22:27:45.843Z,5.40
2019-02-06T22:30:24.568Z,5.40
2019-02-06T22:32:50.909Z,5.50
2019-02-06T22:35:17.347Z,5.40
2019-02-06T22:37:43.536Z,5.40
2019-02-06T22:40:12.863Z,5.50
2019-02-06T22:42:39.085Z,5.50
2019-02-06T22:45:08.815Z,5.50
2019-02-06T22:47:34.850Z,5.50
2019-02-06T22:50:00.883Z,5.50
2019-02-06T22:52:27.023Z,5.50
2019-02-06T22:54:53.445Z,5.50
2019-02-06T22:57:19.480Z,5.60
2019-02-06T22:59:45.608Z,5.60
2019-02-06T23:02:12.035Z,5.60
2019-02-06T23:04:38.080Z,5.60
2019-02-06T23:07:04.152Z,5.70
2019-02-06T23:09:32.101Z,5.70
2019-02-06T23:11:58.225Z,5.70
2019-02-06T23:14:24.583Z,5.70
2019-02-06T23:16:50.703Z,5.70
2019-02-06T23:19:16.729Z,5.70
2019-02-06T23:21:42.767Z,5.70
2019-02-06T23:24:08.796Z,5.80
2019-02-06T23:26:34.937Z,5.80
2019-02-06T23:29:01.132Z,5.80
2019-02-06T23:31:27.160Z,5.80
2019-02-06T23:33:53.484Z,5.80
2019-02-06T23:36:20.598Z,5.80
2019-02-06T23:38:46.723Z,5.80
2019-02-06T23:41:12.747Z,5.80
2019-02-06T23:43:38.904Z,5.70
2019-02-06T23:46:05.037Z,5.70
2019-02-06T23:48:31.064Z,5.70
2019-02-06T23:50:57.333Z,5.70
2019-02-06T23:53:23.655Z,5.70
2019-02-06T23:55:49.731Z,5.80
2019-02-06T23:58:16.340Z,5.70
